Time;durP1;ratioP1;P1;durP2;ratioP2;P2;SDS_P1;SDS_P2;PMS_P1;PMS_P2;Temp;Humidity;BMP_temperature;BMP_pressure;BME280_temperature;BME280_humidity;BME280_pressure;Samples;Min_cycle;Max_cycle;Signal;HPM_P1;HPM_P2
2021/06/19 00:01:26;;;;;;;1999.90;999.90;;;27.90;43.40;;;;;;5081646;28;20184;-79
2021/06/19 00:03:52;;;;;;;1999.90;999.90;;;27.90;44.80;;;;;;5081336;28;20418;-79
2021/06/19 00:06:17;;;;;;;1999.90;999.90;;;27.90;46.30;;;;;;5082036;28;20391;-79
2021/06/19 00:08:43;;;;;;;1999.90;999.90;;;27.80;48.10;;;;;;5082512;28;20222;-79
2021/06/19 00:11:08;;;;;;;1999.90;999.90;;;27.70;50.10;;;;;;5082363;28;20164;-79
2021/06/19 00:13:34;;;;;;;1999.90;999.90;;;27.60;53.80;;;;;;5081990;28;20218;-78
2021/06/19 00:16:00;;;;;;;1999.90;999.90;;;27.60;56.00;;;;;;5082478;28;20170;-79
2021/06/19 00:18:26;;;;;;;1999.90;999.90;;;27.50;56.90;;;;;;5082281;28;20172;-79
2021/06/19 00:20:52;;;;;;;1999.90;999.90;;;27.50;58.30;;;;;;5081248;28;20220;-80
2021/06/19 00:23:18;;;;;;;1999.90;999.90;;;27.40;59.10;;;;;;5079778;28;20582;-79
2021/06/19 00:25:44;;;;;;;1999.90;999.90;;;27.40;59.80;;;;;;5081955;28;20529;-79
2021/06/19 00:28:09;;;;;;;1999.90;999.90;;;27.40;59.90;;;;;;5081615;28;20164;-79
2021/06/19 00:30:35;;;;;;;1999.90;999.90;;;27.40;60.70;;;;;;5081402;28;20171;-79
2021/06/19 00:33:01;;;;;;;1999.90;999.90;;;27.40;61.30;;;;;;5080800;28;20175;-79
2021/06/19 00:35:26;;;;;;;1999.90;999.90;;;27.30;62.80;;;;;;5081589;28;20167;-78
2021/06/19 00:37:52;;;;;;;1999.90;999.90;;;27.30;63.70;;;;;;5080947;28;20542;-79
2021/06/19 00:40:19;;;;;;;1999.90;999.90;;;27.30;63.80;;;;;;5081928;28;20192;-79
2021/06/19 00:42:54;;;;;;;1999.90;999.90;;;27.30;64.60;;;;;;5097512;28;20516;-79
2021/06/19 00:45:20;;;;;;;1999.90;999.90;;;27.20;65.10;;;;;;5081664;28;20438;-79
2021/06/19 00:47:46;;;;;;;1999.90;999.90;;;27.20;65.80;;;;;;5081841;28;20407;-79
2021/06/19 00:50:12;;;;;;;1999.90;999.90;;;27.10;67.80;;;;;;5081344;28;20434;-79
2021/06/19 00:52:37;;;;;;;1999.90;999.90;;;27.10;69.60;;;;;;5080925;28;20611;-80
2021/06/19 00:55:05;;;;;;;1999.90;999.90;;;27.10;70.20;;;;;;5081611;28;20422;-78
2021/06/19 00:57:32;;;;;;;1999.90;999.90;;;27.10;71.50;;;;;;5082265;28;20171;-79
2021/06/19 00:59:59;;;;;;;1999.90;999.90;;;27.00;72.00;;;;;;5081350;28;20516;-79
2021/06/19 01:02:25;;;;;;;1999.90;999.90;;;26.90;73.30;;;;;;5082297;28;20410;-78
2021/06/19 01:04:51;;;;;;;1999.90;999.90;;;26.90;74.60;;;;;;5121102;22;20483;-82
2021/06/19 01:07:17;;;;;;;1999.90;999.90;;;26.80;76.20;;;;;;5055968;28;20968;-82
2021/06/19 01:09:43;;;;;;;1999.90;999.90;;;26.70;77.60;;;;;;5055829;28;20595;-82
2021/06/19 01:12:09;;;;;;;1999.90;999.90;;;26.60;79.40;;;;;;5055899;28;20399;-83
2021/06/19 01:14:35;;;;;;;1999.90;999.90;;;26.60;80.50;;;;;;5055578;28;20165;-82
2021/06/19 01:17:01;;;;;;;1999.90;999.90;;;26.70;81.40;;;;;;5055645;28;20414;-82
2021/06/19 01:19:27;;;;;;;1999.90;999.90;;;26.70;81.60;;;;;;5055770;28;20415;-82
2021/06/19 01:21:55;;;;;;;1999.90;999.90;;;26.70;82.00;;;;;;5055310;28;20161;-82
2021/06/19 01:24:22;;;;;;;1999.90;999.90;;;26.70;82.00;;;;;;5055969;28;20541;-82
2021/06/19 01:26:49;;;;;;;1999.90;999.90;;;26.60;82.20;;;;;;5055573;28;20431;-82
2021/06/19 01:29:15;;;;;;;1999.90;999.90;;;26.60;82.30;;;;;;5055668;28;20494;-82
2021/06/19 01:31:41;;;;;;;1999.90;999.90;;;26.60;81.80;;;;;;5055355;28;20962;-82
2021/06/19 01:34:07;;;;;;;1999.90;999.90;;;26.60;82.30;;;;;;5055367;28;20168;-82
2021/06/19 01:36:33;;;;;;;1999.90;999.90;;;26.60;82.70;;;;;;5055125;28;20165;-82
2021/06/19 01:38:59;;;;;;;1999.90;999.90;;;26.60;83.30;;;;;;5055268;28;20427;-82
2021/06/19 01:41:27;;;;;;;1999.90;999.90;;;26.50;84.10;;;;;;5055022;28;20403;-82
2021/06/19 01:44:01;;;;;;;1999.90;999.90;;;26.50;85.20;;;;;;5055161;28;20165;-82
2021/06/19 01:46:26;;;;;;;1999.90;999.90;;;26.50;85.80;;;;;;5055176;28;20403;-82
2021/06/19 01:48:52;;;;;;;1999.90;999.90;;;26.40;86.70;;;;;;5054803;28;20857;-82
2021/06/19 01:51:18;;;;;;;1999.90;999.90;;;26.40;87.00;;;;;;5054697;28;20398;-82
2021/06/19 01:53:46;;;;;;;1999.90;999.90;;;26.40;87.00;;;;;;5055371;28;20160;-82
2021/06/19 01:56:15;;;;;;;1999.90;999.90;;;26.30;87.80;;;;;;5055056;28;20256;-82
2021/06/19 01:58:41;;;;;;;1999.90;999.90;;;26.30;88.40;;;;;;5053000;28;20423;-82
2021/06/19 02:01:10;;;;;;;1999.90;999.90;;;26.30;88.60;;;;;;5054726;28;20400;-82
2021/06/19 02:03:36;;;;;;;1999.90;999.90;;;26.20;88.40;;;;;;5054901;28;20425;-82
2021/06/19 02:06:02;;;;;;;1999.90;999.90;;;26.20;88.80;;;;;;5054828;28;20451;-82
2021/06/19 02:08:28;;;;;;;1999.90;999.90;;;26.20;88.80;;;;;;5054970;28;20392;-82
2021/06/19 02:10:57;;;;;;;1999.90;999.90;;;26.10;89.00;;;;;;5053327;28;20830;-82
2021/06/19 02:13:23;;;;;;;1999.90;999.90;;;26.10;89.70;;;;;;5055209;28;20169;-82
2021/06/19 02:15:49;;;;;;;1999.90;999.90;;;26.10;90.30;;;;;;5055133;28;20403;-82
2021/06/19 02:18:16;;;;;;;1999.90;999.90;;;26.00;90.40;;;;;;5055058;28;20403;-82
2021/06/19 02:20:42;;;;;;;1999.90;999.90;;;26.00;91.10;;;;;;5054943;28;20406;-82
2021/06/19 02:23:08;;;;;;;1999.90;999.90;;;25.90;91.20;;;;;;5055233;28;20550;-82
2021/06/19 02:25:34;;;;;;;1999.90;999.90;;;26.00;91.50;;;;;;5054239;28;20486;-82
2021/06/19 02:28:02;;;;;;;1999.90;999.90;;;25.90;91.70;;;;;;5054519;28;20414;-82
2021/06/19 02:30:34;;;;;;;1999.90;999.90;;;25.90;92.20;;;;;;5052778;28;20606;-82
2021/06/19 02:33:00;;;;;;;1999.90;999.90;;;25.80;92.50;;;;;;5054232;28;20926;-82
2021/06/19 02:35:32;;;;;;;1999.90;999.90;;;25.80;93.20;;;;;;5052922;28;20421;-82
2021/06/19 02:37:59;;;;;;;1999.90;999.90;;;25.80;93.60;;;;;;5052794;28;20156;-82
2021/06/19 02:40:25;;;;;;;1999.90;999.90;;;25.80;93.80;;;;;;5053921;28;20457;-82
2021/06/19 02:42:51;;;;;;;1999.90;999.90;;;25.70;94.50;;;;;;5054337;28;20956;-82
2021/06/19 02:45:17;;;;;;;1999.90;999.90;;;25.70;94.90;;;;;;5054310;28;20473;-82
2021/06/19 02:47:46;;;;;;;1999.90;999.90;;;25.60;95.40;;;;;;5052757;28;20412;-82
2021/06/19 02:50:13;;;;;;;1999.90;999.90;;;25.50;95.90;;;;;;5054054;28;20292;-82
2021/06/19 02:52:43;;;;;;;1999.90;999.90;;;25.60;96.20;;;;;;5054194;28;20431;-82
2021/06/19 02:55:14;;;;;;;1999.90;999.90;;;25.50;96.60;;;;;;5054119;28;20771;-82
2021/06/19 02:57:41;;;;;;;1999.90;999.90;;;25.50;96.80;;;;;;5054108;28;20384;-82
2021/06/19 03:00:12;;;;;;;1999.90;999.90;;;25.40;97.20;;;;;;5053586;28;20422;-82
2021/06/19 03:02:38;;;;;;;1999.90;999.90;;;25.40;97.50;;;;;;5054267;28;20390;-82
2021/06/19 03:05:05;;;;;;;1999.90;999.90;;;25.30;97.80;;;;;;5053685;28;20458;-82
2021/06/19 03:07:31;;;;;;;1999.90;999.90;;;25.30;98.50;;;;;;5053877;28;20952;-82
2021/06/19 03:09:56;;;;;;;1999.90;999.90;;;25.20;98.60;;;;;;5056581;28;20501;-82
2021/06/19 03:12:22;;;;;;;1999.90;999.90;;;25.20;98.80;;;;;;5058054;28;20248;-82
2021/06/19 03:14:49;;;;;;;1999.90;999.90;;;25.20;99.30;;;;;;5058286;28;20171;-82
2021/06/19 03:17:15;;;;;;;1999.90;999.90;;;25.10;99.80;;;;;;5058177;28;20199;-82
2021/06/19 03:19:41;;;;;;;1999.90;999.90;;;25.10;99.90;;;;;;5057897;28;20427;-82
2021/06/19 03:22:07;;;;;;;1999.90;999.90;;;25.00;99.90;;;;;;5057916;28;20163;-82
2021/06/19 03:24:40;;;;;;;1999.90;999.90;;;25.00;99.90;;;;;;5057809;28;20949;-82
2021/06/19 03:27:07;;;;;;;1999.90;999.90;;;25.00;99.90;;;;;;5057512;28;20986;-82
2021/06/19 03:29:33;;;;;;;1999.90;999.90;;;24.90;99.90;;;;;;5057863;28;20430;-82
2021/06/19 03:31:59;;;;;;;1999.90;999.90;;;24.90;99.90;;;;;;5057684;28;20917;-82
2021/06/19 03:34:24;;;;;;;1999.90;999.90;;;24.90;99.90;;;;;;5057723;28;20865;-82
2021/06/19 03:36:52;;;;;;;1999.90;999.90;;;24.80;99.90;;;;;;5057423;28;20683;-82
2021/06/19 03:39:18;;;;;;;1999.90;999.90;;;24.80;99.90;;;;;;5056287;28;20192;-82
2021/06/19 03:41:44;;;;;;;1999.90;999.90;;;24.80;99.90;;;;;;5057557;28;20404;-82
2021/06/19 03:44:11;;;;;;;1999.90;999.90;;;24.80;99.90;;;;;;5056438;28;20235;-82
2021/06/19 03:46:39;;;;;;;1999.90;999.90;;;24.80;99.90;;;;;;5057981;28;20207;-82
2021/06/19 03:49:05;;;;;;;1999.90;999.90;;;24.70;99.90;;;;;;5058002;28;20461;-82
2021/06/19 03:51:30;;;;;;;1999.90;999.90;;;24.70;99.90;;;;;;5057045;28;20813;-82
2021/06/19 03:53:56;;;;;;;1999.90;999.90;;;24.70;99.90;;;;;;5057917;28;20182;-81
2021/06/19 03:56:22;;;;;;;1999.90;999.90;;;24.70;99.90;;;;;;5057801;28;20164;-82
2021/06/19 03:58:47;;;;;;;1999.90;999.90;;;24.70;99.90;;;;;;5056500;28;20238;-81
2021/06/19 04:01:13;;;;;;;1999.90;999.90;;;24.70;99.90;;;;;;5057439;28;20167;-81
2021/06/19 04:03:39;;;;;;;1999.90;999.90;;;24.70;99.90;;;;;;5057398;28;20651;-81
2021/06/19 04:06:05;;;;;;;1999.90;999.90;;;24.70;99.90;;;;;;5057454;28;20209;-81
2021/06/19 04:08:30;;;;;;;1999.90;999.90;;;24.70;99.90;;;;;;5057359;28;20261;-81
2021/06/19 04:10:56;;;;;;;1999.90;999.90;;;24.70;99.90;;;;;;5057457;28;20908;-81
2021/06/19 04:13:22;;;;;;;1999.90;999.90;;;24.70;99.90;;;;;;5057602;28;20175;-81
2021/06/19 04:15:47;;;;;;;1999.90;999.90;;;24.70;99.90;;;;;;5057502;28;20174;-81
2021/06/19 04:18:13;;;;;;;1999.90;999.90;;;24.60;99.90;;;;;;5056997;28;20171;-82
2021/06/19 04:20:39;;;;;;;1999.90;999.90;;;24.60;99.90;;;;;;5056547;28;20168;-81
2021/06/19 04:23:05;;;;;;;1999.90;999.90;;;24.70;99.90;;;;;;5056995;28;20178;-81
2021/06/19 04:25:30;;;;;;;1999.90;999.90;;;24.60;99.90;;;;;;5056714;28;20540;-81
2021/06/19 04:27:58;;;;;;;1999.90;999.90;;;24.60;99.90;;;;;;5057123;28;20248;-81
2021/06/19 04:30:25;;;;;;;1999.90;999.90;;;24.60;99.90;;;;;;5057137;28;20660;-82
2021/06/19 04:32:53;;;;;;;1999.90;999.90;;;24.60;99.90;;;;;;5056755;28;20485;-81
2021/06/19 04:35:21;;;;;;;1999.90;999.90;;;24.70;99.90;;;;;;5055560;28;20472;-82
2021/06/19 04:37:47;;;;;;;1999.90;999.90;;;24.80;99.90;;;;;;5057221;28;20490;-82
2021/06/19 04:40:25;;;;;;;1999.90;999.90;;;25.00;99.90;;;;;;5056649;28;20466;-82
2021/06/19 04:43:04;;;;;;;1999.90;999.90;;;25.20;99.90;;;;;;5056953;28;20382;-82
2021/06/19 04:45:29;;;;;;;1999.90;999.90;;;25.40;99.90;;;;;;5056303;28;20441;-81
2021/06/19 04:47:56;;;;;;;1999.90;999.90;;;25.60;99.90;;;;;;5056391;28;20500;-81
2021/06/19 04:50:21;;;;;;;1999.90;999.90;;;25.80;99.90;;;;;;5056202;28;20205;-81
2021/06/19 04:52:47;;;;;;;1999.90;999.90;;;25.90;99.90;;;;;;5056412;28;20950;-81
2021/06/19 04:55:18;;;;;;;1999.90;999.90;;;26.00;99.90;;;;;;5056272;28;20184;-81
2021/06/19 04:57:49;;;;;;;1999.90;999.90;;;26.20;99.90;;;;;;5054855;28;20979;-82
2021/06/19 05:00:15;;;;;;;1999.90;999.90;;;26.30;99.60;;;;;;5056319;28;20431;-81
2021/06/19 05:02:40;;;;;;;1999.90;999.90;;;26.40;98.50;;;;;;5054652;28;20955;-82
2021/06/19 05:05:07;;;;;;;1999.90;999.90;;;26.50;98.00;;;;;;5055761;28;20230;-81
2021/06/19 05:07:34;;;;;;;1999.90;999.90;;;26.50;96.90;;;;;;5056025;28;20165;-81
2021/06/19 05:10:04;;;;;;;1999.90;999.90;;;26.50;96.80;;;;;;5056051;28;20424;-81
2021/06/19 05:12:30;;;;;;;1999.90;999.90;;;26.50;96.60;;;;;;5056094;28;20754;-81
2021/06/19 05:14:56;;;;;;;1999.90;999.90;;;26.50;96.90;;;;;;5056079;28;20407;-81
2021/06/19 05:17:21;;;;;;;1999.90;999.90;;;26.40;96.30;;;;;;5055739;28;20208;-81
2021/06/19 05:19:47;;;;;;;1999.90;999.90;;;26.40;96.80;;;;;;5055456;28;20195;-81
2021/06/19 05:22:13;;;;;;;1999.90;999.90;;;26.30;97.50;;;;;;5055581;28;20164;-81
2021/06/19 05:24:38;;;;;;;1999.90;999.90;;;26.30;97.50;;;;;;5054198;28;20351;-81
2021/06/19 05:27:04;;;;;;;1999.90;999.90;;;26.20;97.70;;;;;;5055425;28;20165;-81
2021/06/19 05:29:30;;;;;;;1999.90;999.90;;;26.10;98.00;;;;;;5055373;28;20595;-81
2021/06/19 05:31:56;;;;;;;1999.90;999.90;;;26.10;98.10;;;;;;5055554;28;20497;-81
2021/06/19 05:34:22;;;;;;;1999.90;999.90;;;26.10;98.20;;;;;;5055845;28;20169;-81
2021/06/19 05:36:47;;;;;;;1999.90;999.90;;;26.10;98.50;;;;;;5055841;28;20173;-81
2021/06/19 05:39:13;;;;;;;1999.90;999.90;;;26.00;98.60;;;;;;5055356;28;20291;-81
2021/06/19 05:41:39;;;;;;;1999.90;999.90;;;26.00;97.80;;;;;;5055374;28;20698;-82
2021/06/19 05:44:08;;;;;;;1999.90;999.90;;;25.90;98.50;;;;;;5055037;28;20755;-82
2021/06/19 05:46:35;;;;;;;1999.90;999.90;;;25.80;99.20;;;;;;5053778;28;20551;-81
2021/06/19 05:49:01;;;;;;;1999.90;999.90;;;25.80;99.10;;;;;;5054952;28;20466;-81
2021/06/19 05:51:27;;;;;;;1999.90;999.90;;;25.70;98.60;;;;;;5055077;28;20403;-82
2021/06/19 05:53:53;;;;;;;1999.90;999.90;;;25.70;98.80;;;;;;5053512;28;20267;-81
2021/06/19 05:56:19;;;;;;;1999.90;999.90;;;25.70;98.70;;;;;;5053370;28;20268;-81
2021/06/19 05:58:45;;;;;;;1999.90;999.90;;;25.80;97.20;;;;;;5053721;28;20545;-82
2021/06/19 06:01:11;;;;;;;1999.90;999.90;;;25.80;97.50;;;;;;5055390;28;20514;-82
2021/06/19 06:03:36;;;;;;;1999.90;999.90;;;25.60;97.10;;;;;;5055196;28;20196;-82
2021/06/19 06:06:02;;;;;;;1999.90;999.90;;;25.50;96.60;;;;;;5054921;28;20334;-82
2021/06/19 06:08:28;;;;;;;1999.90;999.90;;;25.40;97.90;;;;;;5054783;28;20169;-81
2021/06/19 06:10:54;;;;;;;1999.90;999.90;;;25.50;97.40;;;;;;5054900;28;20528;-81
2021/06/19 06:13:20;;;;;;;1999.90;999.90;;;25.50;96.90;;;;;;5054784;28;20171;-81
2021/06/19 06:15:45;;;;;;;1999.90;999.90;;;25.50;97.30;;;;;;5054419;28;20413;-81
2021/06/19 06:18:11;;;;;;;1999.90;999.90;;;25.50;97.70;;;;;;5053483;28;20414;-81
2021/06/19 06:20:37;;;;;;;1999.90;999.90;;;25.40;97.50;;;;;;5054259;28;20259;-81
2021/06/19 06:23:03;;;;;;;1999.90;999.90;;;25.30;98.90;;;;;;5054462;28;20176;-81
2021/06/19 06:25:29;;;;;;;1999.90;999.90;;;25.30;99.50;;;;;;5054532;28;20188;-81
2021/06/19 06:27:54;;;;;;;1999.90;999.90;;;25.30;99.90;;;;;;5054097;28;20913;-82
2021/06/19 06:30:21;;;;;;;1999.90;999.90;;;25.10;99.90;;;;;;5054444;28;20242;-81
2021/06/19 06:32:46;;;;;;;1999.90;999.90;;;25.10;99.90;;;;;;5054477;28;20172;-81
2021/06/19 06:35:12;;;;;;;1999.90;999.90;;;25.00;99.90;;;;;;5054577;28;20414;-81
2021/06/19 06:37:39;;;;;;;1999.90;999.90;;;25.10;99.90;;;;;;5054101;28;20171;-81
2021/06/19 06:40:10;;;;;;;1999.90;999.90;;;25.30;99.40;;;;;;5054653;28;20426;-81
2021/06/19 06:42:40;;;;;;;1999.90;999.90;;;25.30;99.70;;;;;;5054874;28;20857;-82
2021/06/19 06:45:08;;;;;;;1999.90;999.90;;;25.20;99.90;;;;;;5053694;28;20548;-81
2021/06/19 06:47:34;;;;;;;1999.90;999.90;;;25.30;98.00;;;;;;5054231;28;20411;-82
2021/06/19 06:49:59;;;;;;;1999.90;999.90;;;25.30;98.00;;;;;;5052792;28;20438;-81
2021/06/19 06:52:25;;;;;;;1999.90;999.90;;;25.30;96.90;;;;;;5054334;28;20191;-81
2021/06/19 06:54:51;;;;;;;1999.90;999.90;;;25.30;97.40;;;;;;5054098;28;20639;-81
2021/06/19 06:57:16;;;;;;;1999.90;999.90;;;25.30;97.30;;;;;;5054413;28;20670;-82
2021/06/19 06:59:43;;;;;;;1999.90;999.90;;;25.30;97.90;;;;;;5054490;28;20195;-82
2021/06/19 07:02:08;;;;;;;1999.90;999.90;;;25.30;98.00;;;;;;5054391;28;20174;-82
2021/06/19 07:04:34;;;;;;;1999.90;999.90;;;25.30;99.10;;;;;;5113436;23;20494;-78
2021/06/19 07:07:00;;;;;;;1999.90;999.90;;;25.20;99.50;;;;;;5054824;28;20411;-78
2021/06/19 07:09:26;;;;;;;1999.90;999.90;;;25.30;98.50;;;;;;5056600;28;20204;-78
2021/06/19 07:11:51;;;;;;;1999.90;999.90;;;25.40;97.40;;;;;;5056194;28;20161;-78
2021/06/19 07:14:17;;;;;;;1999.90;999.90;;;25.50;96.60;;;;;;5056718;28;20172;-78
2021/06/19 07:16:42;;;;;;;1999.90;999.90;;;25.40;95.70;;;;;;5056368;28;20169;-78
2021/06/19 07:19:08;;;;;;;1999.90;999.90;;;25.40;96.30;;;;;;5056413;28;20187;-78
2021/06/19 07:21:34;;;;;;;1999.90;999.90;;;25.40;96.80;;;;;;5056205;28;20192;-78
2021/06/19 07:24:02;;;;;;;1999.90;999.90;;;25.30;96.90;;;;;;5056346;28;20247;-78
2021/06/19 07:26:31;;;;;;;1999.90;999.90;;;25.30;97.80;;;;;;5022850;28;20229;-78
2021/06/19 07:29:00;;;;;;;1999.90;999.90;;;25.20;97.80;;;;;;5055894;28;20454;-78
2021/06/19 07:31:26;;;;;;;1999.90;999.90;;;25.20;98.00;;;;;;5056049;28;20402;-79
2021/06/19 07:33:54;;;;;;;1999.90;999.90;;;25.10;97.30;;;;;;5057698;28;20403;-78
2021/06/19 07:36:21;;;;;;;1999.90;999.90;;;25.10;97.50;;;;;;5039681;28;20399;-79
2021/06/19 07:38:47;;;;;;;1999.90;999.90;;;25.00;97.60;;;;;;5057696;28;20940;-81
2021/06/19 07:41:13;;;;;;;1999.90;999.90;;;25.10;98.00;;;;;;5040455;28;20414;-79
2021/06/19 07:43:44;;;;;;;1999.90;999.90;;;25.00;98.00;;;;;;5058051;28;20711;-80
2021/06/19 07:46:10;;;;;;;1999.90;999.90;;;25.10;97.50;;;;;;5039493;28;20219;-80
2021/06/19 07:48:36;;;;;;;1999.90;999.90;;;25.00;97.00;;;;;;5058139;28;20453;-80
2021/06/19 07:51:02;;;;;;;1999.90;999.90;;;25.10;96.50;;;;;;5058692;28;20403;-80
2021/06/19 07:53:27;;;;;;;1999.90;999.90;;;25.20;95.90;;;;;;5058450;28;20166;-81
2021/06/19 07:55:54;;;;;;;1999.90;999.90;;;25.20;94.20;;;;;;5059987;28;20225;-81
2021/06/19 07:58:20;;;;;;;1999.90;999.90;;;25.30;94.20;;;;;;5062854;28;20152;-81
2021/06/19 08:00:46;;;;;;;1999.90;999.90;;;25.30;93.70;;;;;;5061211;28;20944;-81
2021/06/19 08:03:14;;;;;;;1999.90;999.90;;;25.30;94.10;;;;;;5043898;28;20670;-82
2021/06/19 08:05:40;;;;;;;1999.90;999.90;;;25.30;94.20;;;;;;5061360;28;20702;-81
2021/06/19 08:08:06;;;;;;;1999.90;999.90;;;25.50;94.80;;;;;;5061540;28;20413;-81
2021/06/19 08:10:32;;;;;;;1999.90;999.90;;;25.50;93.50;;;;;;5060385;28;20186;-81
2021/06/19 08:12:57;;;;;;;1999.90;999.90;;;25.60;93.30;;;;;;5060694;28;20734;-81
2021/06/19 08:15:34;;;;;;;1999.90;999.90;;;25.70;92.90;;;;;;5060489;28;20179;-81
2021/06/19 08:18:03;;;;;;;1999.90;999.90;;;25.70;92.30;;;;;;5060831;28;20152;-82
2021/06/19 08:20:38;;;;;;;1999.90;999.90;;;25.80;91.40;;;;;;5042006;28;20442;-81
2021/06/19 08:23:12;;;;;;;1999.90;999.90;;;25.80;92.60;;;;;;5060074;28;20387;-81
2021/06/19 08:25:42;;;;;;;1999.90;999.90;;;25.80;92.00;;;;;;5060081;28;20433;-82
2021/06/19 08:28:14;;;;;;;1999.90;999.90;;;25.80;92.10;;;;;;5060722;28;20383;-82
2021/06/19 08:30:40;;;;;;;1999.90;999.90;;;25.80;91.30;;;;;;5059467;28;20439;-82
2021/06/19 08:33:05;;;;;;;1999.90;999.90;;;25.80;91.40;;;;;;5060511;28;20422;-81
2021/06/19 08:35:34;;;;;;;1999.90;999.90;;;25.80;91.30;;;;;;5060584;28;20165;-81
2021/06/19 08:38:03;;;;;;;1999.90;999.90;;;25.80;90.90;;;;;;5041725;28;20272;-81
2021/06/19 08:40:36;;;;;;;1999.90;999.90;;;25.80;87.80;;;;;;5041806;28;20438;-82
2021/06/19 08:43:02;;;;;;;1999.90;999.90;;;25.80;86.30;;;;;;5060900;28;20859;-81
2021/06/19 08:45:37;;;;;;;1999.90;999.90;;;25.80;88.20;;;;;;5059740;28;20499;-81
2021/06/19 08:48:07;;;;;;;1999.90;999.90;;;25.80;90.20;;;;;;5059754;28;20137;-81
2021/06/19 08:50:36;;;;;;;1999.90;999.90;;;25.90;88.90;;;;;;5058425;28;20941;-81
2021/06/19 08:53:11;;;;;;;1999.90;999.90;;;25.90;83.30;;;;;;5059256;28;20910;-80
2021/06/19 08:55:46;;;;;;;1999.90;999.90;;;26.00;83.60;;;;;;5059453;28;20391;-81
2021/06/19 08:58:19;;;;;;;1999.90;999.90;;;26.00;83.80;;;;;;5059249;28;20406;-80
2021/06/19 09:00:45;;;;;;;1999.90;999.90;;;26.10;82.30;;;;;;5059568;28;20407;-80
2021/06/19 09:03:27;;;;;;;1999.90;999.90;;;26.10;78.80;;;;;;5041566;28;20502;-79
2021/06/19 09:06:14;;;;;;;1999.90;999.90;;;26.20;79.80;;;;;;5042344;28;20496;-81
2021/06/19 09:09:05;;;;;;;1999.90;999.90;;;26.30;81.70;;;;;;5060079;28;20478;-81
2021/06/19 09:11:36;;;;;;;1999.90;999.90;;;26.50;76.50;;;;;;5057779;28;20411;-81
2021/06/19 09:14:23;;;;;;;1999.90;999.90;;;26.50;72.70;;;;;;5042352;28;20399;-81
2021/06/19 09:17:08;;;;;;;1999.90;999.90;;;26.50;72.90;;;;;;5060646;28;20395;-81
2021/06/19 09:19:35;;;;;;;1999.90;999.90;;;26.60;75.70;;;;;;5041975;28;20435;-81
2021/06/19 09:22:22;;;;;;;1999.90;999.90;;;26.70;71.50;;;;;;5041457;28;20452;-81
2021/06/19 09:24:52;;;;;;;1999.90;999.90;;;26.60;70.30;;;;;;5041160;28;20439;-81
2021/06/19 09:27:42;;;;;;;1999.90;999.90;;;26.70;67.70;;;;;;5059722;28;20544;-81
2021/06/19 09:30:18;;;;;;;1999.90;999.90;;;26.80;66.10;;;;;;5060380;28;20407;-81
2021/06/19 09:32:48;;;;;;;1999.90;999.90;;;26.90;60.50;;;;;;5059135;28;20391;-81
2021/06/19 09:35:17;;;;;;;1999.90;999.90;;;27.10;60.00;;;;;;5059376;28;20945;-80
2021/06/19 09:37:46;;;;;;;1999.90;999.90;;;27.20;58.10;;;;;;5059599;28;20910;-80
2021/06/19 09:40:45;;;;;;;1999.90;999.90;;;27.30;56.90;;;;;;5041327;28;20451;-81
2021/06/19 09:43:31;;;;;;;1999.90;999.90;;;27.50;57.80;;;;;;5055522;28;20430;-81
2021/06/19 09:46:00;;;;;;;1999.90;999.90;;;27.60;49.20;;;;;;5059155;28;20439;-80
2021/06/19 09:48:30;;;;;;;1999.90;999.90;;;27.60;45.90;;;;;;5059292;28;20541;-81
2021/06/19 09:51:18;;;;;;;1999.90;999.90;;;27.80;44.90;;;;;;5041255;28;20771;-81
2021/06/19 09:53:58;;;;;;;1999.90;999.90;;;27.90;44.60;;;;;;5059405;28;20395;-80
2021/06/19 09:56:27;;;;;;;1999.90;999.90;;;28.00;51.00;;;;;;5042244;28;20379;-81
2021/06/19 09:59:04;;;;;;;1999.90;999.90;;;28.30;47.40;;;;;;5058543;28;20830;-81
2021/06/19 10:01:38;;;;;;;1999.90;999.90;;;28.30;39.10;;;;;;5058917;28;20403;-80
2021/06/19 10:04:09;;;;;;;1999.90;999.90;;;28.40;32.40;;;;;;5058443;28;20426;-81
2021/06/19 10:06:36;;;;;;;1999.90;999.90;;;28.40;31.20;;;;;;5059294;28;20474;-81
2021/06/19 10:09:03;;;;;;;1999.90;999.90;;;28.50;32.40;;;;;;5058549;28;20430;-81
2021/06/19 10:11:35;;;;;;;1999.90;999.90;;;28.80;29.60;;;;;;5040338;28;20403;-81
2021/06/19 10:14:02;;;;;;;1999.90;999.90;;;29.10;27.70;;;;;;5059066;28;20863;-81
2021/06/19 10:16:29;;;;;;;1999.90;999.90;;;29.30;27.60;;;;;;5058741;28;20426;-81
2021/06/19 10:18:56;;;;;;;1999.90;999.90;;;29.50;26.20;;;;;;5057597;28;20423;-81
2021/06/19 10:21:24;;;;;;;1999.90;999.90;;;29.50;28.50;;;;;;5058260;28;20396;-81
2021/06/19 10:23:50;;;;;;;1999.90;999.90;;;29.50;24.80;;;;;;5039952;28;20441;-82
2021/06/19 10:26:22;;;;;;;1999.90;999.90;;;29.50;21.30;;;;;;5040524;28;20438;-81
2021/06/19 10:28:52;;;;;;;1999.90;999.90;;;29.30;19.70;;;;;;5058084;28;20435;-81
2021/06/19 10:31:19;;;;;;;1999.90;999.90;;;29.60;23.70;;;;;;5058395;28;20467;-81
2021/06/19 10:33:48;;;;;;;1999.90;999.90;;;29.90;23.90;;;;;;5058556;28;20413;-81
2021/06/19 10:36:17;;;;;;;1999.90;999.90;;;30.30;21.40;;;;;;5040474;28;20480;-81
2021/06/19 10:38:50;;;;;;;1999.90;999.90;;;30.60;18.00;;;;;;5058782;28;20775;-81
2021/06/19 10:41:21;;;;;;;1999.90;999.90;;;30.90;17.50;;;;;;5058435;28;20430;-81
2021/06/19 10:43:51;;;;;;;1999.90;999.90;;;31.00;16.10;;;;;;5058472;28;20392;-81
2021/06/19 10:46:38;;;;;;;1999.90;999.90;;;31.20;13.80;;;;;;5057888;28;20517;-82
2021/06/19 10:49:23;;;;;;;1999.90;999.90;;;31.20;12.20;;;;;;5057806;28;20511;-81
2021/06/19 10:52:27;;;;;;;1999.90;999.90;;;31.20;10.50;;;;;;5058624;28;20403;-82
2021/06/19 10:55:08;;;;;;;1999.90;999.90;;;31.70;10.50;;;;;;5040383;28;20434;-81
2021/06/19 10:57:51;;;;;;;1999.90;999.90;;;32.10;8.70;;;;;;5057930;28;20409;-81
2021/06/19 11:00:47;;;;;;;1999.90;999.90;;;31.90;6.30;;;;;;5040945;28;21007;-81
2021/06/19 11:03:20;;;;;;;1999.90;999.90;;;32.20;8.80;;;;;;5051818;28;20905;-81
2021/06/19 11:06:26;;;;;;;1999.90;999.90;;;32.00;6.90;;;;;;5040549;28;20509;-81
2021/06/19 11:09:10;;;;;;;1999.90;999.90;;;32.30;4.40;;;;;;4996526;28;20473;-81
2021/06/19 11:11:45;;;;;;;1999.90;999.90;;;32.10;3.20;;;;;;4996113;28;20445;-82
2021/06/19 11:14:11;;;;;;;1999.90;999.90;;;32.00;3.90;;;;;;5036920;28;20454;-81
2021/06/19 11:16:41;;;;;;;1999.90;999.90;;;31.80;2.10;;;;;;5057614;28;20928;-81
2021/06/19 11:19:36;;;;;;;1999.90;999.90;;;31.90;2.70;;;;;;5057913;28;20850;-81
2021/06/19 11:22:49;;;;;;;1999.90;999.90;;;32.00;3.20;;;;;;5042918;28;20426;-82
2021/06/19 11:25:37;;;;;;;1999.90;999.90;;;32.30;3.90;;;;;;5058632;28;20443;-81
2021/06/19 11:28:09;;;;;;;1999.90;999.90;;;32.20;2.00;;;;;;5058179;28;20386;-82
2021/06/19 11:30:54;;;;;;;1999.90;999.90;;;32.00;1.10;;;;;;5060648;28;20809;-82
2021/06/19 11:33:34;;;;;;;1999.90;999.90;;;31.60;4.10;;;;;;5062379;28;20546;-81
2021/06/19 11:36:18;;;;;;;1999.90;999.90;;;32.00;4.10;;;;;;5061909;28;20486;-82
2021/06/19 11:38:51;;;;;;;1999.90;999.90;;;32.00;2.90;;;;;;5061954;28;20425;-82
2021/06/19 11:41:27;;;;;;;1999.90;999.90;;;32.00;1.00;;;;;;5061575;28;20375;-81
2021/06/19 11:43:59;;;;;;;1999.90;999.90;;;32.50;1.00;;;;;;5043283;28;20548;-81
2021/06/19 11:46:35;;;;;;;1999.90;999.90;;;33.00;1.00;;;;;;5039716;28;20416;-82
2021/06/19 11:49:27;;;;;;;1999.90;999.90;;;33.40;1.00;;;;;;5056975;28;20442;-82
2021/06/19 11:51:56;;;;;;;1999.90;999.90;;;33.30;1.00;;;;;;5061616;28;20376;-82
2021/06/19 11:54:26;;;;;;;1999.90;999.90;;;33.20;1.00;;;;;;5061196;28;20441;-81
2021/06/19 11:56:56;;;;;;;1999.90;999.90;;;33.10;1.00;;;;;;5060548;28;20395;-82
2021/06/19 11:59:27;;;;;;;1999.90;999.90;;;33.20;1.00;;;;;;5043320;28;20431;-82
2021/06/19 12:01:52;;;;;;;1999.90;999.90;;;33.50;1.00;;;;;;5043195;28;20485;-81
2021/06/19 12:04:27;;;;;;;1999.90;999.90;;;33.10;1.00;;;;;;5043143;28;20942;-82
2021/06/19 12:07:01;;;;;;;1999.90;999.90;;;32.90;1.00;;;;;;5061433;28;20156;-82
2021/06/19 12:09:33;;;;;;;1999.90;999.90;;;32.50;1.00;;;;;;5060416;28;20471;-83
2021/06/19 12:12:05;;;;;;;1999.90;999.90;;;31.70;1.00;;;;;;5060314;28;20475;-82